createdAt,value
2023-08-14T00:04:37.244Z,100.00
2023-08-14T00:09:40.701Z,100.00
2023-08-14T00:14:44.170Z,100.00
2023-08-14T00:19:47.492Z,100.00
2023-08-14T00:24:50.993Z,100.00
2023-08-14T00:29:54.521Z,100.00
2023-08-14T00:34:58.023Z,100.00
2023-08-14T00:40:01.617Z,100.00
2023-08-14T00:45:05.476Z,100.00
2023-08-14T00:50:10.037Z,100.00
2023-08-14T00:55:21.436Z,100.00
2023-08-14T01:00:25.892Z,100.00
2023-08-14T01:05:29.516Z,100.00
2023-08-14T01:10:51.014Z,100.00
2023-08-14T01:15:59.129Z,100.00
2023-08-14T01:21:14.697Z,100.00
2023-08-14T01:26:18.095Z,100.00
2023-08-14T01:31:21.552Z,100.00
2023-08-14T01:36:42.630Z,100.00
2023-08-14T01:41:51.822Z,100.00
2023-08-14T01:46:58.568Z,100.00
2023-08-14T01:52:02.920Z,100.00
2023-08-14T01:57:07.252Z,100.00
2023-08-14T02:02:12.357Z,100.00
2023-08-14T02:07:15.724Z,100.00
2023-08-14T02:12:19.449Z,100.00
2023-08-14T02:17:23.704Z,100.00
2023-08-14T02:22:27.281Z,100.00
2023-08-14T02:27:31.184Z,100.00
2023-08-14T02:32:34.576Z,100.00
2023-08-14T02:37:38.198Z,100.00
2023-08-14T02:42:41.541Z,100.00
2023-08-14T02:47:45.075Z,100.00
2023-08-14T02:52:48.664Z,100.00
2023-08-14T02:57:52.267Z,100.00
2023-08-14T03:02:55.835Z,100.00
2023-08-14T03:08:00.165Z,100.00
2023-08-14T03:13:03.738Z,100.00
2023-08-14T03:18:07.263Z,100.00
2023-08-14T03:23:10.640Z,100.00
2023-08-14T03:28:14.125Z,100.00
2023-08-14T03:33:17.688Z,100.00
2023-08-14T03:38:21.557Z,100.00
2023-08-14T03:43:24.961Z,100.00
2023-08-14T03:48:28.479Z,100.00
2023-08-14T03:53:32.703Z,100.00
2023-08-14T03:58:36.247Z,100.00
2023-08-14T04:03:39.841Z,100.00
2023-08-14T04:08:43.492Z,100.00
2023-08-14T04:13:47.222Z,100.00
2023-08-14T04:18:50.874Z,100.00
2023-08-14T04:23:54.294Z,100.00
2023-08-14T04:28:57.732Z,100.00
2023-08-14T04:34:01.392Z,100.00
2023-08-14T04:39:06.230Z,100.00
2023-08-14T04:44:09.615Z,100.00
2023-08-14T04:49:13.128Z,100.00
2023-08-14T04:54:16.572Z,100.00
2023-08-14T04:59:20.096Z,100.00
2023-08-14T05:04:24.262Z,100.00
2023-08-14T05:09:28.186Z,100.00
2023-08-14T05:14:32.297Z,100.00
2023-08-14T05:19:35.700Z,100.00
2023-08-14T05:24:39.154Z,100.00
2023-08-14T05:29:42.727Z,100.00
2023-08-14T05:34:46.429Z,100.00
2023-08-14T05:39:50.267Z,100.00
2023-08-14T05:44:53.598Z,100.00
2023-08-14T05:49:57.128Z,100.00
2023-08-14T05:55:01.076Z,100.00
2023-08-14T06:00:05.412Z,100.00
2023-08-14T06:05:10.349Z,100.00
2023-08-14T06:10:13.832Z,100.00
2023-08-14T06:15:18.585Z,100.00
2023-08-14T06:20:22.357Z,100.00
2023-08-14T06:25:27.404Z,100.00
2023-08-14T06:30:31.830Z,100.00
2023-08-14T06:35:35.042Z,100.00
2023-08-14T06:40:38.451Z,100.00
2023-08-14T06:45:41.803Z,100.00
2023-08-14T06:50:45.243Z,100.00
2023-08-14T06:55:49.223Z,100.00
2023-08-14T07:00:52.766Z,100.00
2023-08-14T07:05:56.656Z,100.00
2023-08-14T07:11:00.240Z,100.00
2023-08-14T07:16:04.010Z,100.00
2023-08-14T07:21:08.000Z,100.00
2023-08-14T07:26:13.880Z,98.62
2023-08-14T07:31:17.499Z,100.00
2023-08-14T07:36:21.020Z,99.92
2023-08-14T07:41:24.604Z,100.00
2023-08-14T07:46:27.922Z,100.00
2023-08-14T07:51:31.391Z,100.00
2023-08-14T07:56:35.551Z,100.00
2023-08-14T08:01:38.923Z,100.00
2023-08-14T08:06:44.540Z,100.00
2023-08-14T08:11:50.344Z,100.00
2023-08-14T08:16:54.106Z,100.00
2023-08-14T08:21:57.528Z,100.00
2023-08-14T08:27:00.832Z,100.00
2023-08-14T08:32:04.344Z,100.00
2023-08-14T08:37:08.127Z,100.00
2023-08-14T08:42:11.959Z,100.00
2023-08-14T08:47:21.856Z,97.10
2023-08-14T08:52:26.759Z,93.73
2023-08-14T08:57:31.059Z,93.64
2023-08-14T09:02:34.554Z,93.13
2023-08-14T09:07:38.066Z,91.48
2023-08-14T09:12:41.678Z,93.83
2023-08-14T09:27:15.538Z,86.66
2023-08-14T11:47:19.143Z,71.50
2023-08-14T11:57:09.656Z,74.60
2023-08-14T12:02:13.100Z,71.46
2023-08-14T12:07:19.705Z,71.31
2023-08-14T12:12:23.834Z,71.56
2023-08-14T12:17:27.593Z,73.64
2023-08-14T12:27:20.512Z,73.72
2023-08-14T12:32:25.853Z,73.81
2023-08-14T12:37:29.548Z,70.81
2023-08-14T12:42:33.014Z,75.33
2023-08-14T12:47:36.826Z,71.21
2023-08-14T12:57:27.114Z,72.94
2023-08-14T13:02:30.606Z,73.15
2023-08-14T13:17:09.480Z,76.48
2023-08-14T13:22:14.834Z,75.06
2023-08-14T13:32:03.246Z,75.19
2023-08-14T13:46:41.944Z,74.68
2023-08-14T13:51:46.523Z,77.23
2023-08-14T13:56:50.368Z,76.10
2023-08-14T14:01:53.893Z,77.88
2023-08-14T14:06:57.347Z,78.60
2023-08-14T14:26:32.907Z,76.20
2023-08-14T14:31:36.539Z,80.52
2023-08-14T14:36:39.955Z,78.06
2023-08-14T14:41:43.594Z,78.54
2023-08-14T14:46:47.059Z,76.37
2023-08-14T14:51:50.551Z,81.87
2023-08-14T14:56:53.866Z,81.00
2023-08-14T15:07:06.254Z,79.75
2023-08-14T15:12:09.877Z,80.06
2023-08-14T15:17:13.503Z,78.96
2023-08-14T15:22:17.242Z,80.25
2023-08-14T15:27:21.117Z,78.70
2023-08-14T15:32:24.879Z,75.82
2023-08-14T15:37:28.504Z,74.31
2023-08-14T15:42:32.355Z,72.80
2023-08-14T15:47:36.005Z,74.67
2023-08-14T15:52:39.491Z,73.82
2023-08-14T15:57:43.038Z,73.95
2023-08-14T16:02:46.942Z,74.63
2023-08-14T16:07:50.253Z,73.58
2023-08-14T16:12:54.187Z,74.83
2023-08-14T16:17:58.651Z,76.36
2023-08-14T16:23:02.112Z,73.96
2023-08-14T16:28:05.836Z,74.19
2023-08-14T16:33:09.853Z,74.43
2023-08-14T16:38:13.484Z,74.23
2023-08-14T16:43:17.189Z,75.28
2023-08-14T16:48:20.805Z,76.67
2023-08-14T16:53:24.350Z,77.90
2023-08-14T16:58:27.902Z,78.10
2023-08-14T17:03:32.097Z,78.70
2023-08-14T17:08:37.629Z,80.63
2023-08-14T17:13:42.540Z,82.61
2023-08-14T17:18:46.459Z,82.42
2023-08-14T17:23:49.875Z,85.37
2023-08-14T17:28:53.292Z,83.36
2023-08-14T17:33:56.821Z,83.29
2023-08-14T17:39:02.256Z,85.12
2023-08-14T17:44:05.824Z,86.29
2023-08-14T17:49:09.375Z,88.09
2023-08-14T17:54:12.845Z,90.69
2023-08-14T17:59:16.340Z,94.18
2023-08-14T18:04:19.933Z,99.57
2023-08-14T18:09:23.429Z,100.00
2023-08-14T18:14:26.883Z,100.00
2023-08-14T18:19:30.242Z,100.00
2023-08-14T18:24:33.569Z,100.00
2023-08-14T18:29:37.069Z,100.00
2023-08-14T18:34:41.406Z,100.00
2023-08-14T18:39:44.720Z,100.00
2023-08-14T18:44:48.092Z,100.00
2023-08-14T18:49:52.247Z,100.00
2023-08-14T18:54:55.574Z,100.00
2023-08-14T18:59:59.131Z,100.00
2023-08-14T19:05:02.488Z,100.00
2023-08-14T19:10:06.996Z,100.00
2023-08-14T19:15:10.599Z,100.00
2023-08-14T19:20:13.980Z,100.00
2023-08-14T19:25:17.507Z,100.00
2023-08-14T19:30:21.401Z,100.00
2023-08-14T19:35:24.927Z,100.00
2023-08-14T19:40:28.301Z,100.00
2023-08-14T19:45:32.004Z,100.00
2023-08-14T19:50:35.323Z,100.00
2023-08-14T19:55:40.484Z,100.00
2023-08-14T20:00:44.109Z,100.00
2023-08-14T20:05:50.941Z,100.00
2023-08-14T20:11:01.980Z,100.00
2023-08-14T20:16:05.705Z,100.00
2023-08-14T20:21:09.116Z,100.00
2023-08-14T20:26:12.577Z,100.00
2023-08-14T20:31:20.447Z,100.00
2023-08-14T20:36:26.928Z,100.00
2023-08-14T20:41:30.447Z,100.00
2023-08-14T20:46:34.077Z,100.00
2023-08-14T20:51:37.612Z,100.00
2023-08-14T20:56:40.945Z,100.00
2023-08-14T21:01:44.421Z,100.00
2023-08-14T21:06:48.022Z,100.00
2023-08-14T21:11:51.456Z,100.00
2023-08-14T21:16:54.915Z,100.00
2023-08-14T21:21:58.409Z,100.00
2023-08-14T21:27:01.807Z,100.00
2023-08-14T21:32:05.698Z,100.00
2023-08-14T21:37:09.720Z,100.00
2023-08-14T21:42:13.046Z,100.00
2023-08-14T21:47:17.057Z,100.00
2023-08-14T21:52:20.422Z,100.00
2023-08-14T21:57:23.903Z,100.00
2023-08-14T22:02:27.832Z,100.00
2023-08-14T22:07:31.628Z,100.00
2023-08-14T22:12:34.998Z,100.00
2023-08-14T22:17:38.819Z,100.00
2023-08-14T22:22:42.368Z,100.00
2023-08-14T22:27:46.323Z,100.00
2023-08-14T22:32:49.845Z,100.00
2023-08-14T22:37:53.371Z,100.00
2023-08-14T22:42:57.178Z,100.00
2023-08-14T22:48:00.730Z,100.00
2023-08-14T22:53:04.760Z,100.00
2023-08-14T22:58:08.222Z,100.00
2023-08-14T23:03:12.313Z,100.00
2023-08-14T23:08:15.712Z,100.00
2023-08-14T23:13:19.172Z,100.00
2023-08-14T23:18:22.521Z,100.00
2023-08-14T23:23:25.945Z,100.00
2023-08-14T23:28:29.767Z,100.00
2023-08-14T23:33:33.248Z,100.00
2023-08-14T23:38:36.614Z,100.00
2023-08-14T23:43:39.924Z,100.00
2023-08-14T23:48:43.391Z,100.00
2023-08-14T23:53:46.715Z,100.00
2023-08-14T23:58:50.480Z,100.00
